Time;durP1;ratioP1;P1;durP2;ratioP2;P2;SDS_P1;SDS_P2;PMS_P1;PMS_P2;Temp;Humidity;BMP_temperature;BMP_pressure;BME280_temperature;BME280_humidity;BME280_pressure;Samples;Min_cycle;Max_cycle;Signal;HPM_P1;HPM_P2
2022/11/21 00:00:41;;;;;;;;;;;;;;;26.45;57.12;95745.63;606221;234;67270;-63
2022/11/21 00:03:10;;;;;;;;;;;;;;;26.44;55.60;95750.23;606264;234;64925;-63
2022/11/21 00:05:41;;;;;;;;;;;;;;;26.42;56.65;95757.86;606244;234;65055;-64
2022/11/21 00:08:13;;;;;;;;;;;;;;;26.42;58.20;95747.09;606241;234;65187;-63
2022/11/21 00:10:41;;;;;;;;;;;;;;;26.42;58.70;95749.00;606221;234;65108;-63
2022/11/21 00:13:10;;;;;;;;;;;;;;;26.41;55.99;95750.92;606264;234;62971;-63
2022/11/21 00:15:37;;;;;;;;;;;;;;;26.40;56.37;95740.47;606250;233;66948;-63
2022/11/21 00:18:05;;;;;;;;;;;;;;;26.40;57.17;95732.38;606264;234;66807;-63
2022/11/21 00:20:35;;;;;;;;;;;;;;;26.40;57.40;95729.69;606246;234;63097;-63
2022/11/21 00:23:03;;;;;;;;;;;;;;;26.40;59.05;95717.00;606232;234;64721;-64
2022/11/21 00:25:31;;;;;;;;;;;;;;;26.36;56.40;95724.20;606257;234;64722;-64
2022/11/21 00:27:58;;;;;;;;;;;;;;;26.37;56.08;95730.37;606309;234;63830;-64
2022/11/21 00:30:26;;;;;;;;;;;;;;;26.35;57.96;95728.81;606234;234;66961;-63
2022/11/21 00:32:53;;;;;;;;;;;;;;;26.34;56.18;95712.97;606367;233;66848;-63
2022/11/21 00:35:21;;;;;;;;;;;;;;;26.34;58.47;95708.36;606749;234;65047;-63
2022/11/21 00:37:49;;;;;;;;;;;;;;;26.33;58.63;95701.42;606720;234;66851;-64
2022/11/21 00:40:17;;;;;;;;;;;;;;;26.33;57.00;95703.33;606727;234;64627;-67
2022/11/21 00:42:44;;;;;;;;;;;;;;;26.32;58.60;95702.52;606756;234;65098;-67
2022/11/21 00:45:12;;;;;;;;;;;;;;;26.32;58.74;95705.22;606715;234;67305;-67
2022/11/21 00:47:39;;;;;;;;;;;;;;;26.31;56.25;95697.48;606705;234;65403;-67
2022/11/21 00:50:07;;;;;;;;;;;;;;;26.29;56.60;95689.73;606722;234;65030;-67
2022/11/21 00:52:34;;;;;;;;;;;;;;;26.28;56.33;95672.02;606729;234;67409;-67
2022/11/21 00:55:02;;;;;;;;;;;;;;;26.29;56.19;95668.19;606766;234;66928;-67
2022/11/21 00:57:29;;;;;;;;;;;;;;;26.28;57.39;95666.63;606703;234;65078;-67
2022/11/21 00:59:57;;;;;;;;;;;;;;;26.26;58.87;95647.33;606735;234;67306;-67
2022/11/21 01:02:24;;;;;;;;;;;;;;;26.26;59.85;95655.41;606697;234;67036;-67
2022/11/21 01:04:52;;;;;;;;;;;;;;;26.27;57.35;95654.30;606770;234;65010;-67
2022/11/21 01:07:19;;;;;;;;;;;;;;;26.26;60.31;95646.55;606761;234;66972;-67
2022/11/21 01:09:47;;;;;;;;;;;;;;;26.23;58.57;95639.92;606695;234;67098;-67
2022/11/21 01:12:15;;;;;;;;;;;;;;;26.23;59.33;95623.77;606692;234;65167;-67
2022/11/21 01:14:42;;;;;;;;;;;;;;;26.21;56.53;95615.23;606702;234;67252;-67
2022/11/21 01:17:09;;;;;;;;;;;;;;;26.21;59.23;95601.77;606732;234;67031;-67
2022/11/21 01:19:37;;;;;;;;;;;;;;;26.22;58.77;95619.52;606774;234;65126;-67
2022/11/21 01:22:04;;;;;;;;;;;;;;;26.19;57.33;95606.73;606709;234;67232;-68
2022/11/21 01:24:32;;;;;;;;;;;;;;;26.19;57.12;95609.42;606713;234;66946;-67
2022/11/21 01:26:59;;;;;;;;;;;;;;;26.19;57.15;95614.00;606727;234;65079;-67
2022/11/21 01:29:27;;;;;;;;;;;;;;;26.19;58.21;95601.34;606728;234;67235;-67
2022/11/21 01:31:54;;;;;;;;;;;;;;;26.18;58.23;95605.14;606752;234;67080;-67
2022/11/21 01:34:22;;;;;;;;;;;;;;;26.16;57.54;95615.46;606674;233;65117;-68
2022/11/21 01:36:49;;;;;;;;;;;;;;;26.17;58.47;95633.20;606694;234;67206;-67
2022/11/21 01:39:17;;;;;;;;;;;;;;;26.17;58.89;95645.89;606720;234;67068;-67
2022/11/21 01:41:45;;;;;;;;;;;;;;;26.16;57.44;95647.77;606690;234;65058;-67
2022/11/21 01:44:14;;;;;;;;;;;;;;;26.17;58.28;95653.97;606777;234;67249;-67
2022/11/21 01:46:42;;;;;;;;;;;;;;;26.12;57.78;95666.52;606731;234;64945;-63
2022/11/21 01:49:10;;;;;;;;;;;;;;;26.13;59.46;95662.69;606719;234;63080;-63
2022/11/21 01:51:45;;;;;;;;;;;;;;;26.13;59.29;95659.22;606699;234;67238;-63
2022/11/21 01:54:17;;;;;;;;;;;;;;;26.11;57.55;95656.87;606554;233;66841;-64
2022/11/21 01:56:46;;;;;;;;;;;;;;;26.11;59.25;95629.95;606702;234;62525;-64
2022/11/21 01:59:15;;;;;;;;;;;;;;;26.09;56.67;95626.81;606701;234;67254;-64
2022/11/21 02:01:44;;;;;;;;;;;;;;;26.10;58.17;95646.44;606667;234;64616;-64
2022/11/21 02:04:11;;;;;;;;;;;;;;;26.08;55.93;95645.98;606707;234;65015;-64
2022/11/21 02:06:39;;;;;;;;;;;;;;;26.07;57.22;95601.34;606723;234;64911;-64
2022/11/21 02:09:07;;;;;;;;;;;;;;;26.07;58.42;95579.81;606699;234;67278;-64
2022/11/21 02:11:42;;;;;;;;;;;;;;;26.06;57.44;95605.17;606754;234;65177;-64
2022/11/21 02:14:11;;;;;;;;;;;;;;;26.04;56.53;95605.49;606752;234;67358;-64
2022/11/21 02:16:38;;;;;;;;;;;;;;;26.04;58.81;95581.27;606687;234;65127;-64
2022/11/21 02:19:07;;;;;;;;;;;;;;;26.04;57.00;95583.18;606729;234;62966;-68
2022/11/21 02:21:39;;;;;;;;;;;;;;;26.04;59.15;95580.48;606715;234;64623;-68
2022/11/21 02:24:11;;;;;;;;;;;;;;;26.03;58.05;95592.39;606717;234;67142;-68
2022/11/21 02:26:40;;;;;;;;;;;;;;;26.02;58.64;95605.04;598483;234;65152;-68
2022/11/21 02:29:07;;;;;;;;;;;;;;;26.02;57.11;95639.25;606669;234;67572;-68
2022/11/21 02:31:35;;;;;;;;;;;;;;;26.01;55.87;95684.23;606679;234;66986;-68
2022/11/21 02:34:02;;;;;;;;;;;;;;;26.00;59.21;95660.33;606315;233;65119;-68
2022/11/21 02:36:31;;;;;;;;;;;;;;;25.99;57.03;95597.64;606231;234;67230;-68
2022/11/21 02:38:59;;;;;;;;;;;;;;;25.98;58.58;95546.85;606154;233;67045;-68
2022/11/21 02:41:27;;;;;;;;;;;;;;;25.97;56.03;95543.35;606184;234;65100;-68
2022/11/21 02:44:08;;;;;;;;;;;;;;;25.97;56.48;95537.19;606228;234;67258;-68
2022/11/21 02:46:36;;;;;;;;;;;;;;;25.95;56.98;95534.86;606158;234;67101;-68
2022/11/21 02:49:05;;;;;;;;;;;;;;;25.95;54.77;95520.62;606232;234;65004;-68
2022/11/21 02:51:32;;;;;;;;;;;;;;;25.95;57.81;95513.32;606183;234;67279;-68
2022/11/21 02:54:00;;;;;;;;;;;;;;;25.92;55.18;95524.77;606251;234;66851;-68
2022/11/21 02:56:27;;;;;;;;;;;;;;;25.95;57.76;95528.70;606217;234;65001;-68
2022/11/21 02:58:55;;;;;;;;;;;;;;;25.94;56.37;95540.56;606225;234;65109;-68
2022/11/21 03:01:22;;;;;;;;;;;;;;;25.93;57.15;95539.01;606236;234;64987;-68
2022/11/21 03:03:50;;;;;;;;;;;;;;;25.94;59.59;95543.26;606216;234;63021;-68
2022/11/21 03:06:17;;;;;;;;;;;;;;;25.92;56.75;95535.53;606256;234;67287;-68
2022/11/21 03:08:45;;;;;;;;;;;;;;;25.90;57.52;95522.41;606201;234;66842;-68
2022/11/21 03:11:12;;;;;;;;;;;;;;;25.89;56.10;95520.84;606231;234;62922;-68
2022/11/21 03:13:40;;;;;;;;;;;;;;;25.90;57.12;95511.64;606210;234;64933;-68
2022/11/21 03:16:08;;;;;;;;;;;;;;;25.89;57.62;95504.70;606214;234;65299;-68
2022/11/21 03:18:35;;;;;;;;;;;;;;;25.88;55.95;95495.04;606269;234;65038;-68
2022/11/21 03:21:03;;;;;;;;;;;;;;;25.87;56.44;95469.26;606196;234;67350;-68
2022/11/21 03:23:30;;;;;;;;;;;;;;;25.88;58.36;95465.44;606221;234;67117;-68
2022/11/21 03:25:59;;;;;;;;;;;;;;;25.87;59.20;95463.88;606199;234;65131;-68
2022/11/21 03:28:26;;;;;;;;;;;;;;;25.87;58.74;95436.97;606055;234;64955;-68
2022/11/21 03:30:54;;;;;;;;;;;;;;;25.84;59.18;95461.87;606015;234;64791;-69
2022/11/21 03:33:21;;;;;;;;;;;;;;;25.85;57.98;95449.19;606529;233;62909;-68
2022/11/21 03:35:48;;;;;;;;;;;;;;;25.84;59.69;95448.41;606643;234;64703;-69
2022/11/21 03:38:16;;;;;;;;;;;;;;;25.83;58.93;95429.88;606614;234;66895;-68
2022/11/21 03:40:44;;;;;;;;;;;;;;;25.82;59.29;95445.24;606524;234;65066;-68
2022/11/21 03:43:11;;;;;;;;;;;;;;;25.83;57.70;95451.41;605831;234;67461;-68
2022/11/21 03:45:38;;;;;;;;;;;;;;;25.82;58.27;95442.55;606245;234;64878;-68
2022/11/21 03:48:06;;;;;;;;;;;;;;;25.82;59.00;95434.48;606669;234;63003;-68
2022/11/21 03:50:33;;;;;;;;;;;;;;;25.82;56.64;95456.01;606681;234;67219;-68
2022/11/21 03:53:01;;;;;;;;;;;;;;;25.81;58.00;95437.50;606715;234;67080;-68
2022/11/21 03:55:28;;;;;;;;;;;;;;;25.79;58.85;95435.16;606711;234;63088;-68
2022/11/21 03:57:56;;;;;;;;;;;;;;;25.80;58.00;95436.72;606756;234;65197;-68
2022/11/21 04:00:23;;;;;;;;;;;;;;;25.79;57.06;95443.23;606701;234;64911;-68
2022/11/21 04:02:51;;;;;;;;;;;;;;;25.79;58.70;95424.40;606648;234;62959;-68
2022/11/21 04:05:18;;;;;;;;;;;;;;;25.79;60.34;95429.78;606670;234;64998;-68
2022/11/21 04:07:46;;;;;;;;;;;;;;;25.79;60.24;95448.62;606716;234;65826;-69
2022/11/21 04:10:13;;;;;;;;;;;;;;;25.78;59.44;95452.44;606751;234;65065;-68
2022/11/21 04:12:41;;;;;;;;;;;;;;;25.75;57.65;95436.95;606682;234;67222;-68
2022/11/21 04:15:08;;;;;;;;;;;;;;;25.75;56.55;95449.63;606700;234;67112;-68
2022/11/21 04:17:37;;;;;;;;;;;;;;;25.76;60.57;95438.53;606682;234;65033;-69
2022/11/21 04:20:05;;;;;;;;;;;;;;;25.75;57.89;95442.33;606693;234;65180;-68
2022/11/21 04:22:33;;;;;;;;;;;;;;;25.74;58.58;95451.53;606782;234;66603;-68
2022/11/21 04:25:00;;;;;;;;;;;;;;;25.74;59.55;95443.47;606720;234;64978;-68
2022/11/21 04:27:28;;;;;;;;;;;;;;;25.74;58.91;95435.39;606700;234;66893;-69
2022/11/21 04:29:55;;;;;;;;;;;;;;;25.73;57.77;95454.55;606681;234;67097;-69
2022/11/21 04:32:23;;;;;;;;;;;;;;;25.72;59.60;95420.70;606653;233;64928;-68
2022/11/21 04:34:50;;;;;;;;;;;;;;;25.71;60.18;95419.93;606760;234;66918;-68
2022/11/21 04:37:18;;;;;;;;;;;;;;;25.70;57.00;95426.45;606694;234;67013;-69
2022/11/21 04:39:45;;;;;;;;;;;;;;;25.69;59.21;95431.02;606705;234;63107;-68
2022/11/21 04:42:12;;;;;;;;;;;;;;;25.71;60.09;95435.30;606711;234;64680;-68
2022/11/21 04:44:40;;;;;;;;;;;;;;;25.68;57.09;95420.62;606681;234;64966;-68
2022/11/21 04:47:07;;;;;;;;;;;;;;;25.69;59.94;95424.86;606759;234;62845;-68
2022/11/21 04:49:35;;;;;;;;;;;;;;;25.69;58.21;95435.63;606773;234;64815;-69
2022/11/21 04:52:02;;;;;;;;;;;;;;;25.68;58.71;95431.38;606718;234;65848;-68
2022/11/21 04:54:30;;;;;;;;;;;;;;;25.66;56.29;95447.06;606714;234;63885;-68
2022/11/21 04:56:57;;;;;;;;;;;;;;;25.67;59.54;95432.48;606694;234;67461;-68
2022/11/21 04:59:25;;;;;;;;;;;;;;;25.66;57.46;95447.06;606707;234;67004;-64
2022/11/21 05:01:52;;;;;;;;;;;;;;;25.63;57.71;95448.52;606781;234;65035;-64
2022/11/21 05:04:20;;;;;;;;;;;;;;;25.65;59.56;95462.43;606716;234;67205;-65
2022/11/21 05:06:47;;;;;;;;;;;;;;;25.64;57.23;95433.94;606713;234;67098;-64
2022/11/21 05:09:15;;;;;;;;;;;;;;;25.63;56.53;95461.20;606713;234;65078;-64
2022/11/21 05:14:28;;;;;;;;;;;;;;;25.62;58.54;95452.34;606768;234;65121;-63
2022/11/21 05:16:55;;;;;;;;;;;;;;;25.60;59.17;95454.59;606738;234;63014;-63
2022/11/21 05:19:23;;;;;;;;;;;;;;;25.61;59.99;95444.61;606696;234;64986;-63
2022/11/21 05:21:50;;;;;;;;;;;;;;;25.59;58.92;95420.75;606598;234;67052;-63
2022/11/21 05:24:18;;;;;;;;;;;;;;;25.59;58.23;95428.02;606711;234;65093;-63
2022/11/21 05:26:45;;;;;;;;;;;;;;;25.57;57.06;95433.75;606715;234;67265;-63
2022/11/21 05:29:13;;;;;;;;;;;;;;;25.57;58.51;95444.50;606769;234;67066;-63
2022/11/21 05:31:40;;;;;;;;;;;;;;;25.56;58.55;95429.47;606699;234;65073;-63
2022/11/21 05:34:08;;;;;;;;;;;;;;;25.57;59.88;95463.34;606682;233;67421;-63
2022/11/21 05:36:36;;;;;;;;;;;;;;;25.58;60.89;95466.80;606728;234;67046;-63
2022/11/21 05:39:03;;;;;;;;;;;;;;;25.57;58.24;95476.01;606703;234;65121;-63
2022/11/21 05:41:31;;;;;;;;;;;;;;;25.57;60.20;95479.48;606699;234;67422;-63
2022/11/21 05:43:58;;;;;;;;;;;;;;;25.58;59.31;95482.94;606687;234;67342;-63
2022/11/21 05:46:26;;;;;;;;;;;;;;;25.57;59.71;95484.08;606703;234;65098;-63
2022/11/21 05:48:54;;;;;;;;;;;;;;;25.56;58.62;95487.87;606650;234;67199;-63
2022/11/21 05:51:22;;;;;;;;;;;;;;;25.56;59.11;95496.72;606741;234;67026;-63
2022/11/21 05:53:49;;;;;;;;;;;;;;;25.58;60.18;95488.33;606694;234;63834;-63
2022/11/21 05:56:18;;;;;;;;;;;;;;;25.56;57.26;95501.32;606710;234;67300;-63
2022/11/21 05:58:46;;;;;;;;;;;;;;;25.56;58.89;95504.78;606725;234;65029;-63
2022/11/21 06:01:14;;;;;;;;;;;;;;;25.57;60.49;95500.22;606741;234;62773;-64
2022/11/21 06:03:42;;;;;;;;;;;;;;;25.55;59.18;95492.47;606691;234;64790;-64
2022/11/21 06:06:11;;;;;;;;;;;;;;;25.56;58.72;95498.63;606756;234;64802;-64
2022/11/21 06:08:40;;;;;;;;;;;;;;;25.57;58.91;95510.97;606683;234;65166;-64
2022/11/21 06:11:09;;;;;;;;;;;;;;;25.57;60.89;95519.05;606430;233;67411;-64
2022/11/21 06:13:37;;;;;;;;;;;;;;;25.59;59.64;95514.09;606624;234;67010;-64
2022/11/21 06:16:06;;;;;;;;;;;;;;;25.59;60.88;95514.09;606676;234;63007;-64
2022/11/21 06:18:38;;;;;;;;;;;;;;;25.58;59.12;95524.08;606578;234;67245;-64
2022/11/21 06:21:07;;;;;;;;;;;;;;;25.59;59.39;95532.92;606229;234;66994;-64
2022/11/21 06:23:35;;;;;;;;;;;;;;;25.60;58.44;95545.27;606718;234;64984;-64
2022/11/21 06:26:04;;;;;;;;;;;;;;;25.62;58.62;95545.73;606732;234;67208;-64
2022/11/21 06:28:32;;;;;;;;;;;;;;;25.61;59.06;95528.00;606698;234;64973;-64
2022/11/21 06:31:04;;;;;;;;;;;;;;;25.63;59.44;95545.38;606742;234;62966;-64
2022/11/21 06:33:31;;;;;;;;;;;;;;;25.65;59.42;95550.43;606699;233;67246;-64
2022/11/21 06:36:01;;;;;;;;;;;;;;;25.65;60.05;95553.12;606637;234;65080;-64
2022/11/21 06:38:28;;;;;;;;;;;;;;;25.66;58.67;95543.92;604912;234;62971;-64
2022/11/21 06:40:56;;;;;;;;;;;;;;;25.67;61.17;95550.86;606673;234;67208;-64
2022/11/21 06:43:25;;;;;;;;;;;;;;;25.67;59.61;95559.73;606742;234;44384;-64
2022/11/21 06:45:54;;;;;;;;;;;;;;;25.69;58.47;95564.77;606729;234;65287;-61
2022/11/21 06:48:25;;;;;;;;;;;;;;;25.70;60.53;95566.36;606589;234;64839;-61
2022/11/21 06:50:52;;;;;;;;;;;;;;;25.71;59.21;95564.44;605942;234;66921;-62
2022/11/21 06:53:20;;;;;;;;;;;;;;;25.70;58.17;95569.05;606618;233;65126;-65
2022/11/21 06:55:48;;;;;;;;;;;;;;;25.72;58.21;95582.92;607242;233;67405;-64
2022/11/21 06:58:15;;;;;;;;;;;;;;;25.71;57.65;95578.67;607155;233;67317;-65
2022/11/21 07:00:43;;;;;;;;;;;;;;;25.73;58.96;95586.39;607077;233;65193;-65
2022/11/21 07:03:11;;;;;;;;;;;;;;;25.73;57.13;95587.20;607263;233;65081;-64
2022/11/21 07:05:38;;;;;;;;;;;;;;;25.74;57.01;95594.14;607216;233;64952;-64
2022/11/21 07:08:06;;;;;;;;;;;;;;;25.75;55.99;95606.47;607258;233;64994;-69
2022/11/21 07:10:33;;;;;;;;;;;;;;;25.77;58.47;95604.23;607293;233;67160;-68
2022/11/21 07:15:47;;;;;;;;;;;;;;;25.79;57.67;95609.29;607297;233;65191;-67
2022/11/21 07:18:15;;;;;;;;;;;;;;;25.81;58.00;95615.91;607271;233;64676;-64
2022/11/21 07:20:42;;;;;;;;;;;;;;;25.80;57.60;95616.23;607183;233;64959;-62
2022/11/21 07:23:10;;;;;;;;;;;;;;;25.81;58.63;95613.22;607235;233;62678;-60
2022/11/21 07:25:41;;;;;;;;;;;;;;;25.83;58.76;95621.75;607264;233;65030;-63
2022/11/21 07:28:09;;;;;;;;;;;;;;;25.82;58.31;95622.85;607235;233;67127;-64
2022/11/21 07:30:37;;;;;;;;;;;;;;;25.83;58.77;95635.20;607231;233;62992;-61
2022/11/21 07:33:06;;;;;;;;;;;;;;;25.87;58.47;95640.72;606426;233;64815;-64
2022/11/21 07:35:34;;;;;;;;;;;;;;;25.85;56.05;95657.19;605447;234;67158;-65
2022/11/21 07:38:02;;;;;;;;;;;;;;;25.88;57.49;95675.36;605503;234;65112;-67
2022/11/21 07:40:33;;;;;;;;;;;;;;;25.89;56.71;95676.95;605418;234;67262;-64
2022/11/21 07:43:03;;;;;;;;;;;;;;;25.88;58.68;95683.43;605381;234;66989;-65
2022/11/21 07:45:30;;;;;;;;;;;;;;;25.90;58.52;95686.58;605428;234;65118;-64
2022/11/21 07:47:58;;;;;;;;;;;;;;;25.89;56.96;95687.71;605331;234;67314;-63
2022/11/21 07:50:26;;;;;;;;;;;;;;;25.91;58.06;95690.05;605394;234;67016;-63
2022/11/21 07:52:58;;;;;;;;;;;;;;;25.90;55.91;95697.34;605497;234;65057;-70
2022/11/21 07:55:27;;;;;;;;;;;;;;;25.91;56.84;95700.82;605390;234;64973;-69
2022/11/21 07:58:01;;;;;;;;;;;;;;;25.91;55.80;95706.98;605470;234;67064;-70
2022/11/21 08:00:29;;;;;;;;;;;;;;;25.92;55.98;95707.79;605399;234;63811;-71
2022/11/21 08:02:57;;;;;;;;;;;;;;;25.94;56.60;95720.90;605385;234;65035;-70
2022/11/21 08:05:24;;;;;;;;;;;;;;;25.93;57.47;95724.72;605535;234;64755;-69
2022/11/21 08:07:52;;;;;;;;;;;;;;;25.93;55.48;95725.50;605443;234;62658;-71
2022/11/21 08:10:19;;;;;;;;;;;;;;;25.95;57.20;95746.72;605408;234;64890;-70
2022/11/21 08:12:47;;;;;;;;;;;;;;;25.95;56.83;95760.95;605375;234;67315;-69
2022/11/21 08:15:14;;;;;;;;;;;;;;;25.96;56.18;95764.42;605459;234;65029;-70
2022/11/21 08:17:43;;;;;;;;;;;;;;;25.96;57.52;95764.42;605403;234;67170;-72
2022/11/21 08:20:12;;;;;;;;;;;;;;;25.95;57.15;95777.10;605539;234;67001;-69
2022/11/21 08:22:40;;;;;;;;;;;;;;;25.95;56.06;95776.33;605420;234;65112;-71
2022/11/21 08:25:08;;;;;;;;;;;;;;;25.94;56.02;95788.19;605391;234;64965;-71
2022/11/21 08:27:37;;;;;;;;;;;;;;;25.93;56.60;95786.63;605500;234;66757;-72
2022/11/21 08:30:09;;;;;;;;;;;;;;;25.91;55.96;95798.50;605484;234;65037;-72
2022/11/21 08:32:37;;;;;;;;;;;;;;;25.91;55.82;95800.41;605345;233;66889;-70
2022/11/21 08:35:05;;;;;;;;;;;;;;;25.91;56.22;95801.19;604911;234;64720;-72
2022/11/21 08:37:32;;;;;;;;;;;;;;;25.90;56.68;95807.70;604813;234;65063;-73
2022/11/21 08:40:01;;;;;;;;;;;;;;;25.91;55.36;95817.34;604845;234;66972;-72
2022/11/21 08:42:28;;;;;;;;;;;;;;;25.92;55.60;95820.84;604849;234;66796;-73
2022/11/21 08:44:56;;;;;;;;;;;;;;;25.93;54.31;95832.39;604895;234;65093;-73
2022/11/21 08:47:23;;;;;;;;;;;;;;;25.93;53.79;95835.86;604860;234;66971;-71
2022/11/21 08:49:51;;;;;;;;;;;;;;;25.95;54.62;95843.62;604836;234;66729;-70
2022/11/21 08:52:18;;;;;;;;;;;;;;;25.95;55.63;95846.30;604762;234;64927;-71
2022/11/21 08:54:47;;;;;;;;;;;;;;;25.95;55.48;95857.08;604889;234;67124;-71
2022/11/21 08:57:15;;;;;;;;;;;;;;;25.96;55.42;95853.25;604880;234;66990;-71
2022/11/21 08:59:42;;;;;;;;;;;;;;;25.96;56.42;95869.41;604861;234;65139;-70
2022/11/21 09:02:10;;;;;;;;;;;;;;;25.96;55.54;95870.19;604856;234;67327;-71
2022/11/21 09:04:38;;;;;;;;;;;;;;;25.96;54.88;95877.48;604831;234;67066;-70
2022/11/21 09:07:05;;;;;;;;;;;;;;;25.96;56.99;95874.79;604795;234;64928;-70
2022/11/21 09:09:33;;;;;;;;;;;;;;;25.97;55.46;95881.73;604817;234;67181;-72
2022/11/21 09:12:01;;;;;;;;;;;;;;;25.96;56.33;95886.34;604922;234;67098;-70
2022/11/21 09:19:59;;;;;;;;;;;;;;;25.96;57.71;95902.48;607866;231;66920;-71
2022/11/21 09:22:26;;;;;;;;;;;;;;;25.95;57.12;95906.31;601844;235;64923;-71
2022/11/21 09:24:54;;;;;;;;;;;;;;;25.95;55.98;95902.84;601877;235;67185;-70
2022/11/21 09:27:21;;;;;;;;;;;;;;;25.96;55.17;95893.63;601803;235;67389;-72
2022/11/21 09:29:49;;;;;;;;;;;;;;;25.96;54.69;95893.63;601811;235;65123;-72
2022/11/21 09:32:18;;;;;;;;;;;;;;;25.96;57.87;95890.94;602026;233;67177;-71
2022/11/21 09:34:45;;;;;;;;;;;;;;;25.96;57.28;95885.55;616938;230;67028;-71
2022/11/21 09:37:13;;;;;;;;;;;;;;;25.95;55.32;95887.47;610046;232;64940;-72
2022/11/21 09:39:40;;;;;;;;;;;;;;;25.96;57.48;95880.17;609723;232;64857;-73
2022/11/21 09:42:12;;;;;;;;;;;;;;;25.96;56.30;95889.03;610017;232;65228;-71
2022/11/21 09:44:41;;;;;;;;;;;;;;;25.96;56.59;95877.48;616890;230;62895;-70
2022/11/21 09:47:25;;;;;;;;;;;;;;;25.96;57.24;95875.57;608820;233;66819;-72
2022/11/21 09:50:00;;;;;;;;;;;;;;;25.95;56.76;95874.01;616730;230;67141;-70
2022/11/21 09:52:30;;;;;;;;;;;;;;;25.96;57.14;95878.27;607918;233;65058;-71
2022/11/21 09:54:59;;;;;;;;;;;;;;;25.95;58.63;95887.47;604408;230;67514;-71
2022/11/21 09:57:26;;;;;;;;;;;;;;;25.95;57.41;95900.14;609023;233;67111;-69
2022/11/21 09:59:54;;;;;;;;;;;;;;;25.94;58.74;95887.78;616901;230;65041;-71
2022/11/21 10:02:23;;;;;;;;;;;;;;;25.94;58.21;95891.25;607882;233;67385;-71
2022/11/21 10:04:51;;;;;;;;;;;;;;;25.93;56.63;95886.22;616985;230;67113;-71
2022/11/21 10:07:24;;;;;;;;;;;;;;;25.93;56.11;95895.08;610014;232;65029;-73
2022/11/21 10:10:02;;;;;;;;;;;;;;;25.93;57.41;95884.31;610077;232;67256;-73
2022/11/21 10:12:36;;;;;;;;;;;;;;;25.92;58.22;95853.14;613480;230;67031;-72
2022/11/21 10:15:24;;;;;;;;;;;;;;;25.93;58.38;95870.07;602770;235;65012;-73
2022/11/21 10:17:53;;;;;;;;;;;;;;;25.91;57.40;95868.48;602618;234;65138;-70
2022/11/21 10:20:38;;;;;;;;;;;;;;;25.90;55.99;95856.15;602823;235;64978;-69
2022/11/21 10:23:20;;;;;;;;;;;;;;;25.91;57.29;95865.00;602781;235;65150;-71
2022/11/21 10:25:52;;;;;;;;;;;;;;;25.91;56.50;95875.77;602730;235;67223;-66
2022/11/21 10:28:22;;;;;;;;;;;;;;;25.89;55.67;95876.12;602714;235;67155;-66
2022/11/21 10:30:50;;;;;;;;;;;;;;;25.89;55.37;95876.12;602709;235;63051;-65
2022/11/21 10:33:22;;;;;;;;;;;;;;;25.89;56.66;95862.66;604813;233;67241;-65
2022/11/21 10:35:51;;;;;;;;;;;;;;;25.90;56.61;95868.83;606017;233;66830;-65
2022/11/21 10:38:20;;;;;;;;;;;;;;;25.90;55.94;95866.91;607029;233;65209;-65
2022/11/21 10:40:53;;;;;;;;;;;;;;;25.89;56.22;95875.30;607115;233;64895;-64
2022/11/21 10:46:25;;;;;;;;;;;;;;;25.89;55.85;95881.50;607130;233;65340;-64
2022/11/21 10:48:54;;;;;;;;;;;;;;;25.89;50.45;95873.42;607147;233;67325;-64
2022/11/21 10:51:32;;;;;;;;;;;;;;;25.95;55.04;95879.39;607150;233;67102;-62
2022/11/21 10:56:54;;;;;;;;;;;;;;;26.00;56.80;95878.37;607165;233;67300;-64
2022/11/21 10:59:26;;;;;;;;;;;;;;;26.02;54.54;95882.31;607156;233;65874;-63
2022/11/21 11:01:55;;;;;;;;;;;;;;;26.02;56.00;95885.01;607269;233;62838;-64
2022/11/21 11:04:23;;;;;;;;;;;;;;;26.03;57.20;95885.82;607245;233;66899;-64
2022/11/21 11:06:50;;;;;;;;;;;;;;;26.05;56.50;95881.66;606729;233;67065;-65
2022/11/21 11:09:28;;;;;;;;;;;;;;;26.06;56.55;95890.54;607122;233;62920;-65
2022/11/21 11:12:13;;;;;;;;;;;;;;;26.08;56.21;95893.67;607105;233;67532;-66
2022/11/21 11:14:41;;;;;;;;;;;;;;;26.09;54.59;95906.03;607039;233;64965;-63
2022/11/21 11:17:10;;;;;;;;;;;;;;;26.10;56.74;95897.60;607140;233;62969;-65
2022/11/21 11:19:37;;;;;;;;;;;;;;;26.10;55.14;95896.83;607068;233;67384;-64
2022/11/21 11:22:05;;;;;;;;;;;;;;;26.12;55.28;95889.98;607076;233;67034;-65
2022/11/21 11:24:32;;;;;;;;;;;;;;;26.13;55.72;95888.08;607124;233;65022;-65
2022/11/21 11:27:01;;;;;;;;;;;;;;;26.13;55.94;95885.39;607122;233;67211;-64
2022/11/21 11:29:30;;;;;;;;;;;;;;;26.15;56.90;95877.77;607081;233;65275;-65
2022/11/21 11:32:00;;;;;;;;;;;;;;;26.16;54.60;95875.86;607216;233;65114;-70
2022/11/21 11:34:29;;;;;;;;;;;;;;;26.18;55.94;95873.62;602930;234;72898;-70
2022/11/21 11:36:58;;;;;;;;;;;;;;;26.20;55.41;95880.27;602112;235;66950;-71
2022/11/21 11:39:27;;;;;;;;;;;;;;;26.21;53.51;95878.34;602016;235;63012;-71
2022/11/21 11:48:02;;;;;;;;;;;;;;;26.26;55.37;95905.07;602033;235;63107;-70
2022/11/21 11:50:33;;;;;;;;;;;;;;;26.26;55.67;95903.16;601936;235;67312;-70
2022/11/21 11:53:05;;;;;;;;;;;;;;;26.26;55.03;95900.47;595453;238;64760;-71
2022/11/21 11:55:43;;;;;;;;;;;;;;;26.27;55.63;95901.25;595403;238;71072;-71
2022/11/21 11:58:25;;;;;;;;;;;;;;;26.28;57.10;95906.31;595368;238;67920;-70
2022/11/21 12:01:03;;;;;;;;;;;;;;;26.29;57.24;95902.50;601661;231;65270;-71
2022/11/21 12:03:44;;;;;;;;;;;;;;;26.29;57.12;95907.88;595483;237;63172;-68
2022/11/21 12:06:19;;;;;;;;;;;;;;;26.30;57.24;95898.70;595049;238;68249;-71
2022/11/21 12:09:06;;;;;;;;;;;;;;;26.28;54.74;95898.23;595156;238;66941;-70
2022/11/21 12:17:10;;;;;;;;;;;;;;;26.33;55.93;95881.88;601918;235;46322;-71
2022/11/21 12:19:37;;;;;;;;;;;;;;;26.32;56.51;95882.19;602039;235;63053;-70
2022/11/21 12:22:07;;;;;;;;;;;;;;;26.35;53.53;95884.22;595450;238;64756;-71
2022/11/21 12:24:36;;;;;;;;;;;;;;;26.38;57.19;95886.23;602086;235;66162;-65
2022/11/21 12:27:21;;;;;;;;;;;;;;;26.37;56.79;95887.38;602098;235;62806;-66
2022/11/21 12:29:51;;;;;;;;;;;;;;;26.40;56.08;95884.01;602227;235;65408;-65
2022/11/21 12:32:29;;;;;;;;;;;;;;;26.41;54.81;95885.59;601822;235;67054;-64
2022/11/21 12:35:07;;;;;;;;;;;;;;;26.44;55.96;95890.31;608986;232;63135;-63
2022/11/21 12:37:39;;;;;;;;;;;;;;;26.45;55.99;95888.41;608864;233;65090;-63
2022/11/21 12:40:09;;;;;;;;;;;;;;;26.43;55.69;95888.72;608158;233;66822;-63
2022/11/21 12:42:50;;;;;;;;;;;;;;;26.47;57.41;95895.03;609068;233;65022;-63
2022/11/21 12:45:37;;;;;;;;;;;;;;;26.49;55.02;95895.50;609067;233;64712;-65
2022/11/21 12:54:29;;;;;;;;;;;;;;;26.52;55.92;95897.55;608922;233;66939;-64
2022/11/21 12:57:04;;;;;;;;;;;;;;;26.52;54.07;95899.47;609016;233;66703;-63
2022/11/21 12:59:33;;;;;;;;;;;;;;;26.52;55.60;95902.94;609041;233;65427;-64
2022/11/21 13:02:02;;;;;;;;;;;;;;;26.51;54.65;95900.56;608899;233;66930;-64
2022/11/21 13:04:38;;;;;;;;;;;;;;;26.53;55.44;95903.72;608069;232;66874;-63
2022/11/21 13:07:06;;;;;;;;;;;;;;;26.55;55.45;95901.48;609010;233;65099;-63
2022/11/21 13:09:35;;;;;;;;;;;;;;;26.55;55.12;95906.88;608965;233;67007;-64
2022/11/21 13:12:04;;;;;;;;;;;;;;;26.53;55.78;95901.02;606189;233;64724;-63
2022/11/21 13:14:35;;;;;;;;;;;;;;;26.56;55.28;95903.05;601616;236;63081;-63
2022/11/21 13:17:16;;;;;;;;;;;;;;;26.56;55.57;95911.91;600856;236;67269;-63
2022/11/21 13:19:55;;;;;;;;;;;;;;;26.59;55.03;95906.98;594838;238;67382;-64
2022/11/21 13:22:30;;;;;;;;;;;;;;;26.56;55.59;95908.44;595047;238;65111;-64
2022/11/21 13:24:58;;;;;;;;;;;;;;;26.59;55.67;95904.29;593826;238;67062;-64
2022/11/21 13:27:30;;;;;;;;;;;;;;;26.57;54.76;95907.30;608991;233;65075;-63
2022/11/21 13:30:00;;;;;;;;;;;;;;;26.56;55.13;95900.36;608995;233;65059;-64
2022/11/21 13:32:37;;;;;;;;;;;;;;;26.58;54.99;95905.42;606493;232;67200;-64